Time;durP1;ratioP1;P1;durP2;ratioP2;P2;SDS_P1;SDS_P2;PMS_P1;PMS_P2;Temp;Humidity;BMP_temperature;BMP_pressure;BME280_temperature;BME280_humidity;BME280_pressure;Samples;Min_cycle;Max_cycle;Signal;HPM_P1;HPM_P2
2023/09/09 00:01:21;;;;;;;1999.90;999.90;;;15.90;87.20;;;;;;5040382;28;20032;-75
2023/09/09 00:03:48;;;;;;;1999.90;999.90;;;15.80;87.00;;;;;;5041572;28;20108;-75
2023/09/09 00:06:14;;;;;;;1999.90;999.90;;;15.70;86.70;;;;;;5039580;28;20498;-75
2023/09/09 00:08:40;;;;;;;1999.90;999.90;;;15.60;86.80;;;;;;5068378;28;20037;-75
2023/09/09 00:11:06;;;;;;;1999.90;999.90;;;15.60;87.40;;;;;;5041401;28;20036;-75
2023/09/09 00:13:32;;;;;;;1999.90;999.90;;;15.60;87.70;;;;;;5040056;28;20033;-75
2023/09/09 00:15:58;;;;;;;1999.90;999.90;;;15.60;87.80;;;;;;5040747;28;20498;-75
2023/09/09 00:18:24;;;;;;;1999.90;999.90;;;15.70;87.80;;;;;;5040372;28;20406;-75
2023/09/09 00:20:49;;;;;;;1999.90;999.90;;;15.70;88.10;;;;;;5042511;28;20059;-75
2023/09/09 00:23:15;;;;;;;1999.90;999.90;;;15.60;87.70;;;;;;5041398;28;20038;-75
2023/09/09 00:25:42;;;;;;;1999.90;999.90;;;15.70;87.80;;;;;;5039701;28;20061;-75
2023/09/09 00:28:09;;;;;;;1999.90;999.90;;;15.60;88.00;;;;;;5040544;28;20059;-75
2023/09/09 00:30:35;;;;;;;1999.90;999.90;;;15.60;88.20;;;;;;5041381;28;20059;-75
2023/09/09 00:33:01;;;;;;;1999.90;999.90;;;15.50;88.60;;;;;;5037055;28;20099;-75
2023/09/09 00:35:27;;;;;;;1999.90;999.90;;;15.50;88.30;;;;;;5038634;28;20028;-75
2023/09/09 00:37:54;;;;;;;1999.90;999.90;;;15.40;88.50;;;;;;5035304;28;20041;-75
2023/09/09 00:40:19;;;;;;;1999.90;999.90;;;15.40;88.20;;;;;;5033435;28;20026;-75
2023/09/09 00:42:45;;;;;;;1999.90;999.90;;;15.30;88.20;;;;;;5034883;28;20140;-75
2023/09/09 00:45:11;;;;;;;1999.90;999.90;;;15.30;88.40;;;;;;5039978;28;20069;-75
2023/09/09 00:47:38;;;;;;;1999.90;999.90;;;15.30;88.80;;;;;;5038772;28;20036;-75
2023/09/09 00:50:08;;;;;;;1999.90;999.90;;;15.30;88.60;;;;;;5035859;28;20408;-75
2023/09/09 00:52:36;;;;;;;1999.90;999.90;;;15.20;88.40;;;;;;5041230;28;20509;-75
2023/09/09 00:55:02;;;;;;;1999.90;999.90;;;15.20;88.70;;;;;;5035443;28;20083;-74
2023/09/09 00:57:28;;;;;;;1999.90;999.90;;;15.10;88.80;;;;;;5041110;28;20040;-75
2023/09/09 00:59:53;;;;;;;1999.90;999.90;;;15.20;88.70;;;;;;5039379;28;20028;-75
2023/09/09 01:02:19;;;;;;;1999.90;999.90;;;15.10;88.70;;;;;;5040303;28;20021;-75
2023/09/09 01:04:45;;;;;;;1999.90;999.90;;;15.10;88.50;;;;;;5040688;28;20785;-75
2023/09/09 01:07:11;;;;;;;1999.90;999.90;;;15.10;88.30;;;;;;5039408;28;20472;-75
2023/09/09 01:09:37;;;;;;;1999.90;999.90;;;15.00;88.40;;;;;;5040895;28;20037;-75
2023/09/09 01:12:03;;;;;;;1999.90;999.90;;;15.10;88.90;;;;;;5037619;28;20482;-75
2023/09/09 01:14:30;;;;;;;1999.90;999.90;;;14.90;88.80;;;;;;5041269;28;20028;-75
2023/09/09 01:16:56;;;;;;;1999.90;999.90;;;14.90;88.80;;;;;;5041603;28;20104;-75
2023/09/09 01:19:27;;;;;;;1999.90;999.90;;;15.00;89.20;;;;;;5040891;28;20483;-75
2023/09/09 01:21:54;;;;;;;1999.90;999.90;;;15.00;89.20;;;;;;5043807;28;20028;-75
2023/09/09 01:24:20;;;;;;;1999.90;999.90;;;15.00;89.50;;;;;;5043287;28;20061;-75
2023/09/09 01:26:46;;;;;;;1999.90;999.90;;;15.00;89.30;;;;;;5036591;28;20075;-75
2023/09/09 01:29:12;;;;;;;1999.90;999.90;;;15.00;89.10;;;;;;5039613;28;20087;-75
2023/09/09 01:31:38;;;;;;;1999.90;999.90;;;15.10;89.20;;;;;;5035037;28;20025;-74
2023/09/09 01:34:04;;;;;;;1999.90;999.90;;;15.00;89.00;;;;;;5041050;28;20021;-75
2023/09/09 01:36:30;;;;;;;1999.90;999.90;;;15.10;89.00;;;;;;5042135;28;20052;-75
2023/09/09 01:38:56;;;;;;;1999.90;999.90;;;15.00;89.70;;;;;;5042477;28;20475;-75
2023/09/09 01:41:22;;;;;;;1999.90;999.90;;;15.10;90.10;;;;;;5041041;28;20449;-75
2023/09/09 01:43:48;;;;;;;1999.90;999.90;;;15.10;90.10;;;;;;5038190;28;20041;-75
2023/09/09 01:46:14;;;;;;;1999.90;999.90;;;15.10;90.10;;;;;;5038003;28;20112;-75
2023/09/09 01:48:39;;;;;;;1999.90;999.90;;;15.20;90.10;;;;;;5039078;28;20128;-75
2023/09/09 01:51:06;;;;;;;1999.90;999.90;;;15.20;90.20;;;;;;5033880;28;20113;-75
2023/09/09 01:53:31;;;;;;;1999.90;999.90;;;15.20;90.10;;;;;;5043910;28;20396;-75
2023/09/09 01:55:58;;;;;;;1999.90;999.90;;;15.20;90.20;;;;;;5035249;28;20055;-75
2023/09/09 01:58:24;;;;;;;1999.90;999.90;;;15.20;90.30;;;;;;5039458;28;20518;-75
2023/09/09 02:00:49;;;;;;;1999.90;999.90;;;15.10;90.20;;;;;;5038354;28;20029;-75
2023/09/09 02:03:15;;;;;;;1999.90;999.90;;;15.10;90.10;;;;;;5033935;28;20053;-75
2023/09/09 02:05:41;;;;;;;1999.90;999.90;;;15.10;90.10;;;;;;5037705;28;20048;-75
2023/09/09 02:08:06;;;;;;;1999.90;999.90;;;15.20;90.00;;;;;;5037440;28;20033;-75
2023/09/09 02:10:32;;;;;;;1999.90;999.90;;;15.10;89.60;;;;;;5033078;28;20120;-75
2023/09/09 02:12:58;;;;;;;1999.90;999.90;;;15.20;89.40;;;;;;5039732;28;20025;-75
2023/09/09 02:15:23;;;;;;;1999.90;999.90;;;15.10;89.20;;;;;;5037440;28;20026;-75
2023/09/09 02:17:49;;;;;;;1999.90;999.90;;;15.10;89.30;;;;;;5038537;28;20414;-75
2023/09/09 02:20:15;;;;;;;1999.90;999.90;;;15.10;88.90;;;;;;5035760;28;20032;-75
2023/09/09 02:22:40;;;;;;;1999.90;999.90;;;15.10;89.20;;;;;;5035994;28;20029;-75
2023/09/09 02:25:08;;;;;;;1999.90;999.90;;;15.00;89.40;;;;;;5035798;28;20061;-75
2023/09/09 02:27:34;;;;;;;1999.90;999.90;;;14.90;89.20;;;;;;5041258;28;20049;-75
2023/09/09 02:30:01;;;;;;;1999.90;999.90;;;14.90;89.10;;;;;;5031605;28;20503;-75
2023/09/09 02:32:27;;;;;;;1999.90;999.90;;;14.80;89.60;;;;;;5038459;28;20487;-75
2023/09/09 02:34:53;;;;;;;1999.90;999.90;;;14.70;89.40;;;;;;5037025;28;20029;-75
2023/09/09 02:37:22;;;;;;;1999.90;999.90;;;14.70;89.60;;;;;;5035297;28;20034;-75
2023/09/09 02:39:49;;;;;;;1999.90;999.90;;;14.80;89.50;;;;;;5035248;28;20033;-75
2023/09/09 02:42:20;;;;;;;1999.90;999.90;;;14.80;89.70;;;;;;5035489;28;20037;-75
2023/09/09 02:44:49;;;;;;;1999.90;999.90;;;14.70;89.30;;;;;;5036713;28;20036;-75
2023/09/09 02:47:15;;;;;;;1999.90;999.90;;;14.80;89.30;;;;;;5040259;28;20539;-75
2023/09/09 02:49:43;;;;;;;1999.90;999.90;;;14.80;89.20;;;;;;5036432;28;20372;-75
2023/09/09 02:52:09;;;;;;;1999.90;999.90;;;14.80;89.00;;;;;;5037110;28;20064;-75
2023/09/09 02:54:36;;;;;;;1999.90;999.90;;;14.70;89.10;;;;;;5044779;28;20033;-75
2023/09/09 02:57:03;;;;;;;1999.90;999.90;;;14.60;89.50;;;;;;5041667;28;20037;-75
2023/09/09 02:59:30;;;;;;;1999.90;999.90;;;14.50;89.50;;;;;;5040776;28;20406;-75
2023/09/09 03:01:56;;;;;;;1999.90;999.90;;;14.50;90.00;;;;;;5041964;28;20040;-75
2023/09/09 03:04:22;;;;;;;1999.90;999.90;;;14.60;89.90;;;;;;5043339;28;20424;-76
2023/09/09 03:06:48;;;;;;;1999.90;999.90;;;14.60;89.50;;;;;;5055058;28;20120;-76
2023/09/09 03:09:14;;;;;;;1999.90;999.90;;;14.50;89.50;;;;;;5041847;28;20069;-76
2023/09/09 03:11:39;;;;;;;1999.90;999.90;;;14.50;89.80;;;;;;5037020;28;20124;-76
2023/09/09 03:14:05;;;;;;;1999.90;999.90;;;14.50;89.50;;;;;;5041633;28;20498;-76
2023/09/09 03:16:31;;;;;;;1999.90;999.90;;;14.50;89.30;;;;;;5044490;28;20747;-76
2023/09/09 03:18:56;;;;;;;1999.90;999.90;;;14.50;89.50;;;;;;5042273;28;20050;-76
2023/09/09 03:21:23;;;;;;;1999.90;999.90;;;14.50;89.50;;;;;;5043960;28;20029;-76
2023/09/09 03:23:48;;;;;;;1999.90;999.90;;;14.50;89.60;;;;;;5040449;28;20036;-74
2023/09/09 03:26:19;;;;;;;1999.90;999.90;;;14.50;89.60;;;;;;5039560;28;20445;-74
2023/09/09 03:28:50;;;;;;;1999.90;999.90;;;14.60;89.50;;;;;;5044194;28;20065;-76
2023/09/09 03:31:16;;;;;;;1999.90;999.90;;;14.60;89.20;;;;;;5039456;28;20045;-76
2023/09/09 03:33:42;;;;;;;1999.90;999.90;;;14.60;89.20;;;;;;5042331;28;20470;-76
2023/09/09 03:36:08;;;;;;;1999.90;999.90;;;14.60;89.30;;;;;;5034528;28;20025;-76
2023/09/09 03:38:36;;;;;;;1999.90;999.90;;;14.40;89.50;;;;;;5042409;28;20033;-76
2023/09/09 03:41:06;;;;;;;1999.90;999.90;;;14.50;90.00;;;;;;5040555;28;20064;-76
2023/09/09 03:43:36;;;;;;;1999.90;999.90;;;14.50;90.20;;;;;;5045952;28;20445;-75
2023/09/09 03:46:01;;;;;;;1999.90;999.90;;;14.50;90.10;;;;;;5038189;28;20041;-76
2023/09/09 03:48:27;;;;;;;1999.90;999.90;;;14.60;90.20;;;;;;5043085;28;20066;-76
2023/09/09 03:51:03;;;;;;;1999.90;999.90;;;14.50;90.00;;;;;;5042553;28;20021;-76
2023/09/09 03:53:28;;;;;;;1999.90;999.90;;;14.50;90.00;;;;;;5042129;28;20033;-76
2023/09/09 03:55:54;;;;;;;1999.90;999.90;;;14.40;89.90;;;;;;5042239;28;20040;-76
2023/09/09 03:58:21;;;;;;;1999.90;999.90;;;14.40;90.00;;;;;;5040147;28;20119;-76
2023/09/09 04:00:48;;;;;;;1999.90;999.90;;;14.30;90.60;;;;;;5037208;28;20030;-76
2023/09/09 04:03:14;;;;;;;1999.90;999.90;;;14.30;91.10;;;;;;5037397;28;20036;-75
2023/09/09 04:05:44;;;;;;;1999.90;999.90;;;14.40;91.10;;;;;;5041117;28;20025;-76
2023/09/09 04:08:09;;;;;;;1999.90;999.90;;;14.50;90.90;;;;;;5040847;28;20048;-76
2023/09/09 04:10:38;;;;;;;1999.90;999.90;;;14.50;90.80;;;;;;5040587;28;20500;-76
2023/09/09 04:13:03;;;;;;;1999.90;999.90;;;14.40;90.60;;;;;;5041471;28;20030;-76
2023/09/09 04:15:29;;;;;;;1999.90;999.90;;;14.40;90.80;;;;;;5031114;28;20083;-76
2023/09/09 04:17:55;;;;;;;1999.90;999.90;;;14.40;91.00;;;;;;5038768;28;20042;-76
2023/09/09 04:20:20;;;;;;;1999.90;999.90;;;14.30;90.80;;;;;;5041922;28;20559;-76
2023/09/09 04:22:46;;;;;;;1999.90;999.90;;;14.30;90.80;;;;;;5039906;28;20045;-76
2023/09/09 04:25:11;;;;;;;1999.90;999.90;;;14.30;90.60;;;;;;5033936;28;20029;-76
2023/09/09 04:27:37;;;;;;;1999.90;999.90;;;14.30;90.50;;;;;;5038220;28;20514;-76
2023/09/09 04:30:04;;;;;;;1999.90;999.90;;;14.30;90.60;;;;;;5034795;28;20041;-76
2023/09/09 04:32:31;;;;;;;1999.90;999.90;;;14.30;90.60;;;;;;5030024;28;20040;-74
2023/09/09 04:34:57;;;;;;;1999.90;999.90;;;14.30;90.60;;;;;;5031424;28;20033;-76
2023/09/09 04:37:24;;;;;;;1999.90;999.90;;;14.30;90.90;;;;;;5033766;28;20033;-75
2023/09/09 04:39:50;;;;;;;1999.90;999.90;;;14.30;91.00;;;;;;5036513;28;20030;-74
2023/09/09 04:42:17;;;;;;;1999.90;999.90;;;14.40;90.80;;;;;;5039471;28;20056;-77
2023/09/09 04:44:42;;;;;;;1999.90;999.90;;;14.40;90.80;;;;;;5036508;28;20495;-76
2023/09/09 04:47:08;;;;;;;1999.90;999.90;;;14.40;90.80;;;;;;5038076;28;20051;-76
2023/09/09 04:49:34;;;;;;;1999.90;999.90;;;14.30;90.70;;;;;;5031789;28;20037;-77
2023/09/09 04:51:59;;;;;;;1999.90;999.90;;;14.30;90.80;;;;;;5039203;28;20045;-76
2023/09/09 04:54:25;;;;;;;1999.90;999.90;;;14.30;90.70;;;;;;5038002;28;20033;-76
2023/09/09 04:56:51;;;;;;;1999.90;999.90;;;14.40;91.10;;;;;;5034187;28;20029;-76
2023/09/09 04:59:16;;;;;;;1999.90;999.90;;;14.50;91.00;;;;;;5028638;28;20034;-77
2023/09/09 05:01:42;;;;;;;1999.90;999.90;;;14.40;90.80;;;;;;5031673;28;20419;-76
2023/09/09 05:04:08;;;;;;;1999.90;999.90;;;14.40;91.10;;;;;;5030479;28;20110;-76
2023/09/09 05:06:34;;;;;;;1999.90;999.90;;;14.50;91.10;;;;;;5033890;28;20075;-76
2023/09/09 05:08:59;;;;;;;1999.90;999.90;;;14.40;90.80;;;;;;5033754;28;20037;-76
2023/09/09 05:11:25;;;;;;;1999.90;999.90;;;14.50;90.80;;;;;;5035962;28;20036;-76
2023/09/09 05:13:51;;;;;;;1999.90;999.90;;;14.50;90.70;;;;;;5038642;28;20396;-76
2023/09/09 05:16:16;;;;;;;1999.90;999.90;;;14.50;91.00;;;;;;5040496;28;20392;-76
2023/09/09 05:18:42;;;;;;;1999.90;999.90;;;14.60;91.00;;;;;;5030510;28;20045;-76
2023/09/09 05:21:07;;;;;;;1999.90;999.90;;;14.50;91.00;;;;;;5038665;28;20207;-76
2023/09/09 05:23:35;;;;;;;1999.90;999.90;;;14.60;91.00;;;;;;5038819;28;20120;-76
2023/09/09 05:26:01;;;;;;;1999.90;999.90;;;14.60;91.10;;;;;;5030468;28;20037;-76
2023/09/09 05:28:26;;;;;;;1999.90;999.90;;;14.60;91.10;;;;;;5033773;28;20052;-76
2023/09/09 05:30:52;;;;;;;1999.90;999.90;;;14.70;91.10;;;;;;5038398;28;20112;-76
2023/09/09 05:33:18;;;;;;;1999.90;999.90;;;14.70;91.10;;;;;;5029266;28;20029;-76
2023/09/09 05:35:44;;;;;;;1999.90;999.90;;;14.70;91.10;;;;;;5033808;28;20026;-76
2023/09/09 05:38:09;;;;;;;1999.90;999.90;;;14.80;91.00;;;;;;5033374;28;20036;-77
2023/09/09 05:40:35;;;;;;;1999.90;999.90;;;14.90;91.20;;;;;;5034776;28;20033;-76
2023/09/09 05:43:01;;;;;;;1999.90;999.90;;;15.00;91.20;;;;;;5036507;28;20112;-76
2023/09/09 05:45:26;;;;;;;1999.90;999.90;;;15.00;91.10;;;;;;5036410;28;20179;-76
2023/09/09 05:47:52;;;;;;;1999.90;999.90;;;15.10;91.30;;;;;;5034639;28;20041;-76
2023/09/09 05:50:18;;;;;;;1999.90;999.90;;;15.20;91.30;;;;;;5035848;28;20032;-76
2023/09/09 05:52:43;;;;;;;1999.90;999.90;;;15.20;91.30;;;;;;5027332;28;20077;-75
2023/09/09 05:55:09;;;;;;;1999.90;999.90;;;15.30;91.50;;;;;;5030914;28;20030;-76
2023/09/09 05:57:35;;;;;;;1999.90;999.90;;;15.40;91.50;;;;;;5035848;28;20057;-76
2023/09/09 06:00:02;;;;;;;1999.90;999.90;;;15.50;91.40;;;;;;5029769;28;20403;-75
2023/09/09 06:02:27;;;;;;;1999.90;999.90;;;15.60;91.20;;;;;;5033137;28;20069;-77
2023/09/09 06:04:53;;;;;;;1999.90;999.90;;;15.70;91.10;;;;;;5030340;28;20079;-75
2023/09/09 06:07:19;;;;;;;1999.90;999.90;;;15.80;90.90;;;;;;5029096;28;20625;-76
2023/09/09 06:09:45;;;;;;;1999.90;999.90;;;15.90;91.00;;;;;;5032041;28;20033;-76
2023/09/09 06:12:11;;;;;;;1999.90;999.90;;;16.00;90.80;;;;;;5026634;28;20029;-76
2023/09/09 06:14:36;;;;;;;1999.90;999.90;;;16.20;90.60;;;;;;5033616;28;20116;-76
2023/09/09 06:17:02;;;;;;;1999.90;999.90;;;16.30;90.40;;;;;;5030947;28;20160;-76
2023/09/09 06:19:28;;;;;;;1999.90;999.90;;;16.30;90.60;;;;;;5032216;28;20048;-76
2023/09/09 06:21:54;;;;;;;1999.90;999.90;;;16.30;90.80;;;;;;5032141;28;20037;-76
2023/09/09 06:24:20;;;;;;;1999.90;999.90;;;16.40;91.10;;;;;;5034288;28;20042;-76
2023/09/09 06:26:45;;;;;;;1999.90;999.90;;;16.50;90.60;;;;;;5029265;28;20037;-76
2023/09/09 06:29:12;;;;;;;1999.90;999.90;;;16.50;90.70;;;;;;5029377;28;20411;-77
2023/09/09 06:31:38;;;;;;;1999.90;999.90;;;16.60;90.80;;;;;;5034215;28;20037;-76
2023/09/09 06:34:04;;;;;;;1999.90;999.90;;;16.70;90.80;;;;;;5034765;28;20557;-75
2023/09/09 06:36:30;;;;;;;1999.90;999.90;;;16.80;90.70;;;;;;5033024;28;20061;-81
2023/09/09 06:38:55;;;;;;;1999.90;999.90;;;16.80;90.30;;;;;;5036645;28;20124;-75
2023/09/09 06:41:21;;;;;;;1999.90;999.90;;;17.00;90.20;;;;;;5037287;28;20030;-75
2023/09/09 06:43:48;;;;;;;1999.90;999.90;;;17.10;89.60;;;;;;5035718;28;20395;-75
2023/09/09 06:46:13;;;;;;;1999.90;999.90;;;17.10;89.10;;;;;;5035455;28;20061;-75
2023/09/09 06:48:39;;;;;;;1999.90;999.90;;;17.30;89.20;;;;;;5038423;28;20110;-76
2023/09/09 06:51:05;;;;;;;1999.90;999.90;;;17.40;88.70;;;;;;5037936;28;20545;-74
2023/09/09 06:53:30;;;;;;;1999.90;999.90;;;17.50;88.70;;;;;;5035500;28;20044;-74
2023/09/09 06:55:56;;;;;;;1999.90;999.90;;;17.70;88.00;;;;;;5035050;28;20118;-75
2023/09/09 06:58:21;;;;;;;1999.90;999.90;;;17.80;87.50;;;;;;5034741;28;20040;-74
2023/09/09 07:00:51;;;;;;;1999.90;999.90;;;17.90;87.10;;;;;;5032342;28;20045;-72
2023/09/09 07:03:19;;;;;;;1999.90;999.90;;;18.00;86.90;;;;;;5034030;28;20041;-73
2023/09/09 07:05:44;;;;;;;1999.90;999.90;;;18.10;87.20;;;;;;5031590;28;20037;-73
2023/09/09 07:08:10;;;;;;;1999.90;999.90;;;18.20;86.00;;;;;;5026238;28;20672;-74
2023/09/09 07:10:36;;;;;;;1999.90;999.90;;;18.30;85.30;;;;;;5033444;28;20081;-74
2023/09/09 07:13:03;;;;;;;1999.90;999.90;;;18.50;84.90;;;;;;5030205;28;20042;-74
2023/09/09 07:15:29;;;;;;;1999.90;999.90;;;18.60;84.30;;;;;;5034019;28;20415;-74
2023/09/09 07:17:55;;;;;;;1999.90;999.90;;;18.80;84.80;;;;;;5028627;28;20018;-74
2023/09/09 07:20:21;;;;;;;1999.90;999.90;;;18.90;83.40;;;;;;5038907;28;20100;-72
2023/09/09 07:22:47;;;;;;;1999.90;999.90;;;19.10;84.10;;;;;;5032407;28;20025;-72
2023/09/09 07:25:13;;;;;;;1999.90;999.90;;;19.10;84.30;;;;;;5029715;28;20388;-72
2023/09/09 07:27:39;;;;;;;1999.90;999.90;;;19.20;83.30;;;;;;5028964;28;20045;-74
2023/09/09 07:30:06;;;;;;;1999.90;999.90;;;19.30;84.00;;;;;;5031691;28;20782;-72
2023/09/09 07:32:32;;;;;;;1999.90;999.90;;;19.40;82.60;;;;;;5030037;28;20041;-73
2023/09/09 07:35:02;;;;;;;1999.90;999.90;;;19.60;81.80;;;;;;5029798;28;20033;-72
2023/09/09 07:37:28;;;;;;;;;;;19.70;82.20;;;;;;5042998;28;20397;-72
2023/09/09 07:39:53;;;;;;;1999.90;999.90;;;19.80;81.60;;;;;;5028354;28;19916;-72
2023/09/09 07:42:19;;;;;;;1999.90;999.90;;;20.00;80.70;;;;;;5035650;28;20043;-72
2023/09/09 07:44:45;;;;;;;1999.90;999.90;;;20.10;80.10;;;;;;5036411;28;20429;-73
2023/09/09 07:47:11;;;;;;;1999.90;999.90;;;20.30;79.40;;;;;;5039728;28;20064;-72
2023/09/09 07:49:37;;;;;;;1999.90;999.90;;;20.30;80.60;;;;;;5036258;28;20086;-72
2023/09/09 07:52:04;;;;;;;1999.90;999.90;;;20.30;79.20;;;;;;5036624;28;20025;-72
2023/09/09 07:54:30;;;;;;;1999.90;999.90;;;20.40;79.20;;;;;;5036029;28;20041;-72
2023/09/09 07:56:56;;;;;;;1999.90;999.90;;;20.60;77.80;;;;;;5037331;28;20392;-72
2023/09/09 07:59:22;;;;;;;1999.90;999.90;;;20.70;78.10;;;;;;5033348;28;20033;-73
2023/09/09 08:01:47;;;;;;;1999.90;999.90;;;20.80;79.40;;;;;;5042476;28;20059;-73
2023/09/09 08:04:14;;;;;;;1999.90;999.90;;;21.00;78.20;;;;;;5029571;28;20124;-72
2023/09/09 08:06:39;;;;;;;1999.90;999.90;;;21.20;77.40;;;;;;5032823;28;20022;-73
2023/09/09 08:09:06;;;;;;;1999.90;999.90;;;21.40;77.10;;;;;;5028554;28;20079;-72
2023/09/09 08:11:31;;;;;;;1999.90;999.90;;;21.40;76.90;;;;;;5031706;28;20024;-72
2023/09/09 08:13:57;;;;;;;1999.90;999.90;;;21.70;76.30;;;;;;5031252;28;20116;-73
2023/09/09 08:16:23;;;;;;;1999.90;999.90;;;21.60;76.70;;;;;;5033926;28;20439;-73
2023/09/09 08:18:48;;;;;;;1999.90;999.90;;;21.70;76.40;;;;;;5034295;28;20108;-72
2023/09/09 08:21:14;;;;;;;1999.90;999.90;;;21.90;76.00;;;;;;5036153;28;20042;-73
2023/09/09 08:23:40;;;;;;;1999.90;999.90;;;22.10;74.90;;;;;;5038820;28;20044;-73
2023/09/09 08:26:06;;;;;;;1999.90;999.90;;;22.30;75.80;;;;;;5034223;28;20037;-77
2023/09/09 08:28:32;;;;;;;1999.90;999.90;;;22.40;74.60;;;;;;5038063;28;20052;-73
2023/09/09 08:31:16;;;;;;;1999.90;999.90;;;22.40;73.30;;;;;;5034677;28;20369;-73
2023/09/09 08:33:41;;;;;;;1999.90;999.90;;;22.40;74.40;;;;;;5030674;28;20052;-73
2023/09/09 08:36:07;;;;;;;1999.90;999.90;;;22.50;71.10;;;;;;5032064;28;20064;-74
2023/09/09 08:38:32;;;;;;;1999.90;999.90;;;22.80;72.40;;;;;;5031911;28;20167;-74
2023/09/09 08:41:20;;;;;;;1999.90;999.90;;;22.90;71.30;;;;;;5034479;28;20543;-74
2023/09/09 08:43:56;;;;;;;1999.90;999.90;;;23.20;72.00;;;;;;5031426;28;20499;-74
2023/09/09 08:46:22;;;;;;;1999.90;999.90;;;23.20;70.40;;;;;;5031578;28;20080;-74
2023/09/09 08:48:51;;;;;;;1999.90;999.90;;;23.30;69.20;;;;;;5031174;28;20025;-74
2023/09/09 08:51:19;;;;;;;1999.90;999.90;;;23.40;70.00;;;;;;5038282;28;20492;-73
2023/09/09 08:53:46;;;;;;;1999.90;999.90;;;23.60;69.60;;;;;;5034563;28;20148;-73
2023/09/09 08:56:13;;;;;;;1999.90;999.90;;;24.00;71.60;;;;;;5033530;28;20082;-78
2023/09/09 08:58:40;;;;;;;1999.90;999.90;;;24.30;68.00;;;;;;5036710;28;20029;-73
2023/09/09 09:01:06;;;;;;;1999.90;999.90;;;24.10;66.70;;;;;;5033507;28;20091;-74
2023/09/09 09:03:33;;;;;;;1999.90;999.90;;;24.30;66.10;;;;;;5033831;28;20065;-75
2023/09/09 09:06:03;;;;;;;1999.90;999.90;;;24.30;65.80;;;;;;5032798;28;20024;-75
2023/09/09 09:08:30;;;;;;;1999.90;999.90;;;24.50;66.10;;;;;;5029721;28;20526;-75
2023/09/09 09:11:03;;;;;;;1999.90;999.90;;;24.60;64.80;;;;;;5031801;28;20033;-75
2023/09/09 09:13:32;;;;;;;1999.90;999.90;;;24.70;68.20;;;;;;5033695;28;20049;-74
2023/09/09 09:15:59;;;;;;;1999.90;999.90;;;25.00;64.90;;;;;;5034428;28;20068;-75
2023/09/09 09:18:25;;;;;;;1999.90;999.90;;;24.90;64.20;;;;;;5028612;28;20144;-75
2023/09/09 09:20:52;;;;;;;1999.90;999.90;;;25.10;64.10;;;;;;5036244;28;20120;-75
2023/09/09 09:23:19;;;;;;;1999.90;999.90;;;25.10;64.90;;;;;;5037455;28;20171;-75
2023/09/09 09:25:47;;;;;;;1999.90;999.90;;;25.50;62.80;;;;;;5030669;28;20033;-75
2023/09/09 09:28:16;;;;;;;1999.90;999.90;;;25.40;62.50;;;;;;5037762;28;20048;-80
2023/09/09 09:30:42;;;;;;;1999.90;999.90;;;25.70;63.50;;;;;;5032766;28;20036;-75
2023/09/09 09:33:08;;;;;;;1999.90;999.90;;;25.90;60.70;;;;;;5030677;28;20085;-77
2023/09/09 09:35:36;;;;;;;1999.90;999.90;;;25.80;64.40;;;;;;5033196;28;20854;-77
2023/09/09 09:38:09;;;;;;;1999.90;999.90;;;25.80;60.60;;;;;;5028660;28;20305;-75
2023/09/09 09:40:35;;;;;;;1999.90;999.90;;;26.00;60.90;;;;;;5028832;28;20018;-79
2023/09/09 09:43:01;;;;;;;1999.90;999.90;;;26.00;61.20;;;;;;5032227;28;20116;-79
2023/09/09 09:45:29;;;;;;;1999.90;999.90;;;26.30;61.30;;;;;;5033732;28;20025;-82
2023/09/09 09:47:57;;;;;;;1999.90;999.90;;;26.60;60.30;;;;;;5036227;28;20346;-81
2023/09/09 09:50:28;;;;;;;1999.90;999.90;;;27.00;60.30;;;;;;5034611;28;20053;-82
2023/09/09 09:53:08;;;;;;;1999.90;999.90;;;26.90;60.90;;;;;;5014246;28;20125;-81
2023/09/09 09:55:36;;;;;;;1999.90;999.90;;;26.90;58.70;;;;;;5032084;28;20034;-80
2023/09/09 09:58:06;;;;;;;1999.90;999.90;;;27.10;57.90;;;;;;5032895;28;20021;-79
2023/09/09 10:00:33;;;;;;;1999.90;999.90;;;26.90;59.50;;;;;;5032195;28;20034;-77
2023/09/09 10:03:01;;;;;;;1999.90;999.90;;;27.10;56.60;;;;;;5028685;28;20024;-78
2023/09/09 10:05:29;;;;;;;1999.90;999.90;;;27.20;56.50;;;;;;5032138;28;20081;-78
2023/09/09 10:08:17;;;;;;;1999.90;999.90;;;27.20;57.00;;;;;;5025938;28;20033;-78
2023/09/09 10:10:54;;;;;;;1999.90;999.90;;;27.60;56.60;;;;;;5035639;28;20111;-80
2023/09/09 10:13:32;;;;;;;1999.90;999.90;;;27.70;54.90;;;;;;5032306;28;20116;-80
2023/09/09 10:15:58;;;;;;;1999.90;999.90;;;28.10;54.00;;;;;;5036055;28;20025;-81
2023/09/09 10:18:26;;;;;;;1999.90;999.90;;;27.80;52.60;;;;;;5029551;28;20036;-80
2023/09/09 10:20:53;;;;;;;1999.90;999.90;;;27.80;55.20;;;;;;5035006;28;20033;-80
2023/09/09 10:23:21;;;;;;;1999.90;999.90;;;27.60;55.20;;;;;;5036400;28;20529;-78
2023/09/09 10:25:48;;;;;;;1999.90;999.90;;;28.20;54.90;;;;;;5032719;28;20080;-78
2023/09/09 10:28:15;;;;;;;1999.90;999.90;;;28.20;51.30;;;;;;5031184;28;20041;-77
2023/09/09 10:30:41;;;;;;;1999.90;999.90;;;28.20;50.20;;;;;;5036850;28;20388;-78
2023/09/09 10:33:08;;;;;;;1999.90;999.90;;;28.30;52.40;;;;;;5035024;28;20025;-77
2023/09/09 10:35:37;;;;;;;1999.90;999.90;;;28.60;49.40;;;;;;5032231;28;20188;-77
2023/09/09 10:38:04;;;;;;;1999.90;999.90;;;28.40;50.20;;;;;;5033803;28;20074;-78
2023/09/09 10:40:30;;;;;;;1999.90;999.90;;;28.20;48.50;;;;;;5029452;28;20038;-77
2023/09/09 10:42:56;;;;;;;1999.90;999.90;;;28.60;48.00;;;;;;5034018;28;20025;-77
2023/09/09 10:45:30;;;;;;;1999.90;999.90;;;29.30;46.00;;;;;;5031219;28;20048;-77
2023/09/09 10:48:03;;;;;;;1999.90;999.90;;;29.30;49.40;;;;;;5035524;28;20033;-77
2023/09/09 10:50:44;;;;;;;1999.90;999.90;;;29.70;46.60;;;;;;5034638;28;20083;-77
2023/09/09 10:53:19;;;;;;;1999.90;999.90;;;30.40;47.90;;;;;;5032882;28;20084;-77
2023/09/09 10:55:46;;;;;;;1999.90;999.90;;;30.90;42.30;;;;;;5033111;28;20136;-77
2023/09/09 10:58:30;;;;;;;1999.90;999.90;;;31.40;41.00;;;;;;5030758;28;20037;-77
2023/09/09 11:00:57;;;;;;;1999.90;999.90;;;31.70;40.10;;;;;;5021034;28;20089;-78
2023/09/09 11:03:27;;;;;;;1999.90;999.90;;;32.30;40.30;;;;;;5031541;28;20080;-78
2023/09/09 11:05:59;;;;;;;1999.90;999.90;;;31.60;38.20;;;;;;5034065;28;20038;-80
2023/09/09 11:08:41;;;;;;;1999.90;999.90;;;31.90;42.00;;;;;;5029126;28;20545;-80
2023/09/09 11:11:09;;;;;;;1999.90;999.90;;;32.10;38.90;;;;;;5034152;28;20032;-80
2023/09/09 11:13:50;;;;;;;1999.90;999.90;;;32.90;38.20;;;;;;5037280;28;20033;-80
2023/09/09 11:16:31;;;;;;;1999.90;999.90;;;32.40;35.50;;;;;;5036778;28;20458;-80
2023/09/09 11:18:59;;;;;;;1999.90;999.90;;;32.70;35.70;;;;;;5038650;28;20032;-78
2023/09/09 11:21:25;;;;;;;1999.90;999.90;;;33.00;34.70;;;;;;5036298;28;20102;-78
2023/09/09 11:23:51;;;;;;;1999.90;999.90;;;33.30;33.70;;;;;;5036737;28;20103;-77
2023/09/09 11:26:18;;;;;;;1999.90;999.90;;;33.50;31.70;;;;;;5031048;28;20507;-78
2023/09/09 11:28:48;;;;;;;1999.90;999.90;;;34.00;32.60;;;;;;5029685;28;20100;-77
2023/09/09 11:31:15;;;;;;;1999.90;999.90;;;33.20;33.60;;;;;;5030061;28;20037;-77
2023/09/09 11:33:41;;;;;;;1999.90;999.90;;;32.20;33.70;;;;;;5037474;28;20025;-77
2023/09/09 11:36:13;;;;;;;1999.90;999.90;;;33.00;34.00;;;;;;5033254;28;20044;-76
2023/09/09 11:38:51;;;;;;;1999.90;999.90;;;33.30;32.00;;;;;;5033554;28;20072;-81
2023/09/09 11:41:19;;;;;;;1999.90;999.90;;;34.20;29.30;;;;;;5033391;28;20393;-80
2023/09/09 11:43:46;;;;;;;1999.90;999.90;;;33.50;30.20;;;;;;5035639;28;20057;-78
2023/09/09 11:46:12;;;;;;;1999.90;999.90;;;33.30;33.50;;;;;;5036059;28;20037;-78
2023/09/09 11:48:38;;;;;;;1999.90;999.90;;;34.50;29.80;;;;;;5032438;28;20030;-78
2023/09/09 11:51:04;;;;;;;1999.90;999.90;;;34.00;31.40;;;;;;5029128;28;20029;-78
2023/09/09 11:53:30;;;;;;;1999.90;999.90;;;34.20;30.20;;;;;;5030721;28;20033;-78
2023/09/09 11:55:56;;;;;;;1999.90;999.90;;;35.00;28.70;;;;;;5034779;28;20039;-78
2023/09/09 11:58:22;;;;;;;1999.90;999.90;;;34.50;29.50;;;;;;5037281;28;20064;-78